createdAt,value
2023-09-23T00:00:03.285Z,14.6
2023-09-23T00:20:02.873Z,14.4
2023-09-23T00:40:02.628Z,14.4
2023-09-23T01:00:04.338Z,14.4
2023-09-23T01:20:02.954Z,14.5
2023-09-23T01:40:03.117Z,14.2
2023-09-23T02:00:04.276Z,14
2023-09-23T02:20:02.892Z,14
2023-09-23T02:40:02.656Z,13.9
2023-09-23T03:00:08.433Z,13.9
2023-09-23T03:20:03.125Z,13.8
2023-09-23T03:40:02.795Z,13.6
2023-09-23T04:00:03.121Z,13.7
2023-09-23T04:20:04.999Z,13.7
2023-09-23T04:40:02.660Z,13.7
2023-09-23T05:00:07.120Z,13.7
2023-09-23T05:20:03.415Z,13.6
2023-09-23T05:40:03.156Z,13.5
2023-09-23T06:00:04.110Z,13.5
2023-09-23T06:20:02.742Z,13.5
2023-09-23T06:40:02.624Z,13.9
2023-09-23T07:00:03.553Z,14.2
2023-09-23T07:20:03.327Z,14.9
2023-09-23T07:40:03.289Z,15.7
2023-09-23T08:00:03.426Z,16.4
2023-09-23T08:20:03.483Z,16.8
2023-09-23T08:40:03.550Z,16.9
2023-09-23T09:00:03.385Z,17.1
2023-09-23T09:20:02.380Z,17.1
2023-09-23T09:40:02.997Z,16.9
2023-09-23T10:00:04.543Z,17
2023-09-23T10:20:03.622Z,17.1
2023-09-23T10:40:03.948Z,17.2
2023-09-23T11:00:04.482Z,17.6
2023-09-23T11:20:03.806Z,19
2023-09-23T11:40:02.961Z,19.2
2023-09-23T12:00:03.240Z,19
2023-09-23T12:20:02.358Z,19.7
2023-09-23T12:40:04.534Z,18.7
2023-09-23T13:00:03.344Z,18.1
2023-09-23T13:20:04.336Z,17.9
2023-09-23T13:40:02.775Z,18
2023-09-23T14:00:03.413Z,18.4
2023-09-23T14:20:06.011Z,18.4
2023-09-23T14:40:02.617Z,18.3
2023-09-23T15:00:03.601Z,18.4
2023-09-23T15:20:02.512Z,18.2
2023-09-23T15:40:02.944Z,17.9
2023-09-23T16:00:02.562Z,17.9
2023-09-23T16:20:03.139Z,17.7
2023-09-23T16:40:02.759Z,17.4
2023-09-23T17:00:02.770Z,17.1
2023-09-23T17:20:02.890Z,16.6
2023-09-23T17:40:02.622Z,16.1
2023-09-23T18:00:03.344Z,15.6
2023-09-23T18:20:03.084Z,15.1
2023-09-23T18:40:02.564Z,14.6
2023-09-23T19:00:03.191Z,14
2023-09-23T19:20:03.422Z,13.7
2023-09-23T19:40:03.512Z,13.5
2023-09-23T20:00:03.358Z,13.3
2023-09-23T20:20:03.159Z,13
2023-09-23T20:40:02.925Z,13
2023-09-23T21:00:02.791Z,12.9
2023-09-23T21:20:02.692Z,12.8
2023-09-23T21:40:03.315Z,12.6
2023-09-23T22:00:03.495Z,12.4
2023-09-23T22:20:06.634Z,12.4
2023-09-23T22:40:06.141Z,12.4
2023-09-23T23:00:02.879Z,12.3
2023-09-23T23:20:05.741Z,12.1
2023-09-23T23:40:03.005Z,11.9
